createdAt,value
2017-08-03T00:00:05.649Z,65.4
2017-08-03T00:05:11.420Z,65.9
2017-08-03T00:10:15.852Z,66
2017-08-03T00:15:05.648Z,66.4
2017-08-03T00:20:03.738Z,66.5
2017-08-03T00:25:12.813Z,66.8
2017-08-03T00:30:05.588Z,67.1
2017-08-03T00:35:06.307Z,67
2017-08-03T00:40:05.618Z,67.3
2017-08-03T00:45:08.112Z,67.4
2017-08-03T00:50:08.454Z,68
2017-08-03T00:55:03.674Z,68
2017-08-03T01:00:06.477Z,68.2
2017-08-03T01:05:11.176Z,68.8
2017-08-03T01:10:06.442Z,69
2017-08-03T01:15:06.173Z,69.9
2017-08-03T01:20:03.442Z,69.9
2017-08-03T01:25:06.448Z,71
2017-08-03T01:30:21.431Z,71.2
2017-08-03T01:35:08.533Z,71.6
2017-08-03T01:40:02.836Z,71.5
2017-08-03T01:45:02.730Z,71.3
2017-08-03T01:50:03.754Z,71.3
2017-08-03T01:55:03.792Z,70.6
2017-08-03T02:00:06.689Z,72.2
2017-08-03T02:05:08.732Z,72.6
2017-08-03T02:10:06.051Z,73.1
2017-08-03T02:15:33.731Z,72.6
2017-08-03T02:20:05.467Z,73.1
2017-08-03T02:25:06.156Z,72.8
2017-08-03T02:30:08.339Z,73.4
2017-08-03T02:35:05.921Z,73.4
2017-08-03T02:40:03.905Z,73.4
2017-08-03T02:45:08.242Z,73
2017-08-03T02:50:03.402Z,73
2017-08-03T02:55:03.496Z,73
2017-08-03T03:00:03.633Z,73.9
2017-08-03T03:05:03.896Z,73.7
2017-08-03T03:10:11.079Z,73.3
2017-08-03T03:15:10.701Z,72.9
2017-08-03T03:20:03.980Z,72.9
2017-08-03T03:25:02.810Z,73.4
2017-08-03T03:30:05.344Z,74.4
2017-08-03T03:35:10.829Z,74.1
2017-08-03T03:40:05.859Z,74.3
2017-08-03T03:45:10.595Z,74.6
2017-08-03T03:50:05.623Z,75.2
2017-08-03T03:55:10.639Z,75.4
2017-08-03T04:00:05.704Z,75.8
2017-08-03T04:05:08.745Z,76.3
2017-08-03T04:10:03.308Z,76.3
2017-08-03T04:15:16.246Z,77.5
2017-08-03T04:20:03.685Z,77.5
2017-08-03T04:25:06.285Z,77.6
2017-08-03T04:30:18.596Z,77.5
2017-08-03T04:35:03.687Z,77.5
2017-08-03T04:40:03.324Z,77.3
2017-08-03T04:45:06.112Z,77.9
2017-08-03T04:50:08.326Z,77.7
2017-08-03T04:55:03.419Z,77.7
2017-08-03T05:00:03.659Z,77.5
2017-08-03T05:05:02.818Z,77.4
2017-08-03T05:10:06.085Z,77.8
2017-08-03T05:15:05.850Z,77.7
2017-08-03T05:20:08.305Z,77.2
2017-08-03T05:25:13.459Z,77
2017-08-03T05:30:03.567Z,77.1
2017-08-03T05:35:06.259Z,76.2
2017-08-03T05:40:05.372Z,75.5
2017-08-03T05:45:06.124Z,76.5
2017-08-03T05:50:13.099Z,77.2
2017-08-03T05:55:03.225Z,77.1
2017-08-03T06:00:05.825Z,76.8
2017-08-03T06:05:08.009Z,76.2
2017-08-03T06:10:06.096Z,75.3
2017-08-03T06:15:06.335Z,74.1
2017-08-03T06:20:08.613Z,73.8
2017-08-03T06:25:08.712Z,74.5
2017-08-03T06:30:03.780Z,74.5
2017-08-03T06:35:02.761Z,73.4
2017-08-03T06:40:03.540Z,73.1
2017-08-03T06:45:03.782Z,73.3
2017-08-03T06:50:02.766Z,73.8
2017-08-03T06:55:06.514Z,74.9
2017-08-03T07:00:11.157Z,75.1
2017-08-03T07:05:03.408Z,75.1
2017-08-03T07:10:02.806Z,74.6
2017-08-03T07:15:02.699Z,73.9
2017-08-03T07:20:08.728Z,70.3
2017-08-03T07:25:11.435Z,69.7
2017-08-03T07:30:06.250Z,69.7
2017-08-03T07:35:06.284Z,70.3
2017-08-03T07:40:05.704Z,70.4
2017-08-03T07:45:05.637Z,68.1
2017-08-03T07:50:06.490Z,67.8
2017-08-03T07:55:03.659Z,67.8
2017-08-03T08:00:03.898Z,67.5
2017-08-03T08:05:08.133Z,69.3
2017-08-03T08:10:06.622Z,70.3
2017-08-03T08:15:08.663Z,69.8
2017-08-03T08:20:06.530Z,68.6
2017-08-03T08:25:08.669Z,70
2017-08-03T08:30:11.893Z,70
2017-08-03T08:35:05.689Z,70.9
2017-08-03T08:40:03.213Z,70.9
2017-08-03T08:45:06.098Z,71.3
2017-08-03T08:50:05.790Z,71.6
2017-08-03T08:55:07.973Z,71.8
2017-08-03T09:00:10.678Z,72.4
2017-08-03T09:05:06.302Z,71.7
2017-08-03T09:10:05.420Z,71.1
2017-08-03T09:15:03.235Z,71.1
2017-08-03T09:20:08.535Z,70.4
2017-08-03T09:25:08.682Z,70.6
2017-08-03T09:30:08.722Z,71
2017-08-03T09:35:08.726Z,68.9
2017-08-03T09:40:13.409Z,69.8
2017-08-03T09:45:05.867Z,69.7
2017-08-03T09:50:02.805Z,69.7
2017-08-03T09:55:03.991Z,70.6
2017-08-03T10:00:05.665Z,71.7
2017-08-03T10:05:03.754Z,71.8
2017-08-03T10:10:05.943Z,72.8
2017-08-03T10:15:02.822Z,72.7
2017-08-03T10:20:30.627Z,73
2017-08-03T10:25:06.352Z,72.3
2017-08-03T10:30:03.626Z,72.4
2017-08-03T10:35:08.719Z,72.2
2017-08-03T10:40:03.385Z,72.1
2017-08-03T10:45:06.083Z,70.6
2017-08-03T10:50:10.714Z,69.8
2017-08-03T10:55:03.801Z,69.8
2017-08-03T11:00:20.613Z,70.5
2017-08-03T11:05:06.326Z,70.9
2017-08-03T11:10:10.560Z,70.4
2017-08-03T11:15:06.293Z,70.2
2017-08-03T11:20:03.562Z,70.2
2017-08-03T11:25:03.804Z,69.6
2017-08-03T11:30:02.717Z,70.2
2017-08-03T11:35:03.876Z,69.5
2017-08-03T11:40:04.014Z,69.4
2017-08-03T11:45:10.758Z,69.4
2017-08-03T11:50:03.845Z,69.3
2017-08-03T11:55:02.772Z,70.2
2017-08-03T12:00:02.699Z,69.9
2017-08-03T12:05:08.690Z,70.2
2017-08-03T12:10:03.300Z,70.2
2017-08-03T12:15:08.552Z,69.7
2017-08-03T12:20:06.136Z,69.4
2017-08-03T12:25:13.442Z,70.7
2017-08-03T12:30:03.652Z,70.8
2017-08-03T12:35:08.674Z,69.6
2017-08-03T12:40:05.969Z,70.5
2017-08-03T12:45:05.729Z,70.6
2017-08-03T12:50:08.816Z,70
2017-08-03T12:55:08.022Z,69.8
2017-08-03T13:00:08.478Z,68.9
2017-08-03T13:05:03.585Z,68.8
2017-08-03T13:10:03.311Z,68.2
2017-08-03T13:15:10.847Z,65
2017-08-03T13:20:05.638Z,64.8
2017-08-03T13:25:03.833Z,64.7
2017-08-03T13:30:02.813Z,64.6
2017-08-03T13:35:05.742Z,65.5
2017-08-03T13:40:03.429Z,65.5
2017-08-03T13:45:06.204Z,62.3
2017-08-03T13:50:03.389Z,62.4
2017-08-03T13:55:03.631Z,61.4
2017-08-03T14:00:06.525Z,56.4
2017-08-03T14:05:03.700Z,56.5
2017-08-03T14:10:06.142Z,58
2017-08-03T14:15:10.660Z,57.2
2017-08-03T14:20:08.700Z,55.6
2017-08-03T14:25:03.942Z,55.6
2017-08-03T14:30:06.269Z,55.4
2017-08-03T14:35:08.415Z,55.6
2017-08-03T14:40:05.685Z,57.4
2017-08-03T14:45:11.455Z,57.4
2017-08-03T14:50:03.702Z,57.4
2017-08-03T14:55:06.507Z,57.1
2017-08-03T15:00:04.660Z,57.1
2017-08-03T15:05:04.033Z,58.2
2017-08-03T15:10:08.666Z,58.4
2017-08-03T15:15:18.711Z,65
2017-08-03T15:20:06.624Z,68.7
2017-08-03T15:25:03.751Z,68.3
2017-08-03T15:30:02.716Z,74.5
2017-08-03T15:35:06.483Z,88.6
2017-08-03T15:40:02.831Z,88.6
2017-08-03T15:45:07.985Z,92.3
2017-08-03T15:50:05.673Z,92.6
2017-08-03T15:55:03.857Z,92.6
2017-08-03T16:00:08.092Z,93.7
2017-08-03T16:05:18.236Z,94.2
2017-08-03T16:10:08.162Z,92.4
2017-08-03T16:15:13.524Z,92.1
2017-08-03T16:20:03.772Z,92.1
2017-08-03T16:25:08.742Z,92.4
2017-08-03T16:30:04.003Z,92.4
2017-08-03T16:35:03.233Z,91.4
2017-08-03T16:40:02.724Z,92
2017-08-03T16:45:06.363Z,91.4
2017-08-03T16:50:03.632Z,91.5
2017-08-03T16:55:06.432Z,91.5
2017-08-03T17:00:06.365Z,92.2
2017-08-03T17:05:06.195Z,92
2017-08-03T17:10:03.773Z,92
2017-08-03T17:15:02.774Z,92
2017-08-03T17:20:02.866Z,90.5
2017-08-03T17:25:05.619Z,91.1
2017-08-03T17:30:03.705Z,91.1
2017-08-03T17:35:03.846Z,91.4
2017-08-03T17:40:08.548Z,91.1
2017-08-03T17:45:08.622Z,91
2017-08-03T17:50:08.650Z,90.1
2017-08-03T17:55:08.652Z,89.6
2017-08-03T18:00:10.554Z,87.9
2017-08-03T18:05:06.200Z,83.2
2017-08-03T18:10:04.740Z,83.1
2017-08-03T18:15:06.636Z,83.7
2017-08-03T18:20:06.313Z,85.2
2017-08-03T18:25:06.046Z,81.6
2017-08-03T18:30:03.313Z,81.4
2017-08-03T18:35:06.210Z,80
2017-08-03T18:40:05.430Z,79
2017-08-03T18:45:18.740Z,82
2017-08-03T18:50:06.422Z,81.7
2017-08-03T18:55:03.322Z,81.6
2017-08-03T19:00:03.524Z,82.4
2017-08-03T19:05:06.323Z,75.9
2017-08-03T19:10:02.831Z,76
2017-08-03T19:15:02.739Z,72.9
2017-08-03T19:20:05.503Z,73.9
2017-08-03T19:25:06.154Z,72.2
2017-08-03T19:30:05.782Z,72.2
2017-08-03T19:35:02.838Z,72.3
2017-08-03T19:40:05.789Z,75
2017-08-03T19:45:10.541Z,74
2017-08-03T19:50:16.350Z,71.6
2017-08-03T19:55:06.162Z,75
2017-08-03T20:00:05.994Z,74.1
2017-08-03T20:05:10.689Z,73.4
2017-08-03T20:10:15.996Z,72
2017-08-03T20:15:10.652Z,71.3
2017-08-03T20:20:06.439Z,71.3
2017-08-03T20:25:06.069Z,70.4
2017-08-03T20:30:03.130Z,70.4
2017-08-03T20:35:03.370Z,72.3
2017-08-03T20:40:03.302Z,72.5
2017-08-03T20:45:06.102Z,72.8
2017-08-03T20:50:03.272Z,72.4
2017-08-03T20:55:03.584Z,73.4
2017-08-03T21:00:03.853Z,74.6
2017-08-03T21:05:02.847Z,79.3
2017-08-03T21:10:06.066Z,79.5
2017-08-03T21:15:03.344Z,79.5
2017-08-03T21:20:06.247Z,80.9
2017-08-03T21:25:16.559Z,79.6
2017-08-03T21:30:08.731Z,80.8
2017-08-03T21:35:06.457Z,81.7
2017-08-03T21:40:02.795Z,81.7
2017-08-03T21:45:24.504Z,81.1
2017-08-03T21:50:03.591Z,81
2017-08-03T21:55:03.728Z,83
2017-08-03T22:00:08.756Z,83.7
2017-08-03T22:05:08.667Z,84.2
2017-08-03T22:10:05.777Z,84.5
2017-08-03T22:15:02.720Z,84.4
2017-08-03T22:20:11.479Z,83.8
2017-08-03T22:25:08.546Z,83.6
2017-08-03T22:30:08.627Z,84.5
2017-08-03T22:35:04.006Z,84.6
2017-08-03T22:40:08.703Z,83.1
2017-08-03T22:45:03.876Z,83
2017-08-03T22:50:02.767Z,84.5
2017-08-03T22:55:02.695Z,83.8
2017-08-03T23:00:06.335Z,84.7
2017-08-03T23:05:16.097Z,84.9
2017-08-03T23:10:21.563Z,84.2
2017-08-03T23:15:06.308Z,84.9
2017-08-03T23:20:06.169Z,84.3
2017-08-03T23:25:03.438Z,84.3
2017-08-03T23:30:06.136Z,85
2017-08-03T23:35:03.299Z,84.8
2017-08-03T23:40:05.593Z,85.1
2017-08-03T23:45:03.888Z,85.2
2017-08-03T23:50:05.665Z,85.5
2017-08-03T23:55:03.856Z,85.5
